sensor_id;sensor_type;location;lat;lon;timestamp;pressure;altitude;pressure_sealevel;temperature;humidity
11038;BME280;5572;49.540;11.932;2022-12-18T00:02:04;97537.66;;;-9.86;100.00
11038;BME280;5572;49.540;11.932;2022-12-18T00:04:30;97549.63;;;-9.74;100.00
11038;BME280;5572;49.540;11.932;2022-12-18T00:06:57;97523.22;;;-9.81;100.00
11038;BME280;5572;49.540;11.932;2022-12-18T00:09:25;97515.19;;;-9.70;100.00
11038;BME280;5572;49.540;11.932;2022-12-18T00:11:51;97502.81;;;-9.68;100.00
11038;BME280;5572;49.540;11.932;2022-12-18T00:14:18;97486.78;;;-9.46;100.00
11038;BME280;5572;49.540;11.932;2022-12-18T00:16:46;97490.88;;;-9.43;100.00
11038;BME280;5572;49.540;11.932;2022-12-18T00:19:13;97477.13;;;-9.45;100.00
11038;BME280;5572;49.540;11.932;2022-12-18T00:21:40;97477.81;;;-9.43;100.00
11038;BME280;5572;49.540;11.932;2022-12-18T00:24:07;97477.47;;;-9.58;100.00
11038;BME280;5572;49.540;11.932;2022-12-18T00:26:37;97479.59;;;-9.44;100.00
11038;BME280;5572;49.540;11.932;2022-12-18T00:29:06;97475.00;;;-9.32;100.00
11038;BME280;5572;49.540;11.932;2022-12-18T00:31:34;97473.97;;;-9.22;100.00
11038;BME280;5572;49.540;11.932;2022-12-18T00:34:01;97493.16;;;-9.31;100.00
11038;BME280;5572;49.540;11.932;2022-12-18T00:36:29;97469.31;;;-9.01;100.00
11038;BME280;5572;49.540;11.932;2022-12-18T00:38:57;97457.06;;;-9.01;100.00
11038;BME280;5572;49.540;11.932;2022-12-18T00:41:25;97447.63;;;-8.76;100.00
11038;BME280;5572;49.540;11.932;2022-12-18T00:44:12;97434.44;;;-8.67;100.00
11038;BME280;5572;49.540;11.932;2022-12-18T00:46:40;97437.31;;;-8.95;100.00
11038;BME280;5572;49.540;11.932;2022-12-18T00:49:07;97457.84;;;-9.00;100.00
11038;BME280;5572;49.540;11.932;2022-12-18T00:51:33;97443.66;;;-8.80;100.00
11038;BME280;5572;49.540;11.932;2022-12-18T00:54:00;97433.09;;;-9.06;100.00
11038;BME280;5572;49.540;11.932;2022-12-18T00:56:27;97438.16;;;-9.22;100.00
11038;BME280;5572;49.540;11.932;2022-12-18T00:58:54;97451.78;;;-9.18;100.00
11038;BME280;5572;49.540;11.932;2022-12-18T01:01:22;97452.25;;;-9.05;100.00
11038;BME280;5572;49.540;11.932;2022-12-18T01:03:49;97455.28;;;-9.27;100.00
11038;BME280;5572;49.540;11.932;2022-12-18T01:06:16;97445.50;;;-9.08;100.00
11038;BME280;5572;49.540;11.932;2022-12-18T01:08:43;97427.63;;;-9.12;100.00
11038;BME280;5572;49.540;11.932;2022-12-18T01:11:11;97404.09;;;-8.77;100.00
11038;BME280;5572;49.540;11.932;2022-12-18T01:13:39;97391.00;;;-8.77;100.00
11038;BME280;5572;49.540;11.932;2022-12-18T01:16:06;97374.47;;;-8.95;100.00
11038;BME280;5572;49.540;11.932;2022-12-18T01:18:34;97381.34;;;-9.12;100.00
11038;BME280;5572;49.540;11.932;2022-12-18T01:21:00;97376.13;;;-8.94;100.00
11038;BME280;5572;49.540;11.932;2022-12-18T01:23:27;97380.06;;;-8.90;100.00
11038;BME280;5572;49.540;11.932;2022-12-18T01:25:54;97382.25;;;-8.86;100.00
11038;BME280;5572;49.540;11.932;2022-12-18T01:28:20;97382.09;;;-9.02;100.00
11038;BME280;5572;49.540;11.932;2022-12-18T01:30:47;97368.56;;;-8.97;100.00
11038;BME280;5572;49.540;11.932;2022-12-18T01:33:13;97372.09;;;-8.89;100.00
11038;BME280;5572;49.540;11.932;2022-12-18T01:35:42;97367.81;;;-8.90;100.00
11038;BME280;5572;49.540;11.932;2022-12-18T01:38:09;97367.81;;;-8.90;100.00
11038;BME280;5572;49.540;11.932;2022-12-18T01:40:36;97374.72;;;-8.89;100.00
11038;BME280;5572;49.540;11.932;2022-12-18T01:43:02;97387.84;;;-8.98;100.00
11038;BME280;5572;49.540;11.932;2022-12-18T01:45:30;97370.59;;;-9.09;100.00
11038;BME280;5572;49.540;11.932;2022-12-18T01:47:59;97370.28;;;-9.06;100.00
11038;BME280;5572;49.540;11.932;2022-12-18T01:50:31;97357.19;;;-8.88;100.00
11038;BME280;5572;49.540;11.932;2022-12-18T01:53:06;97362.94;;;-9.02;100.00
11038;BME280;5572;49.540;11.932;2022-12-18T01:55:37;97359.34;;;-8.84;100.00
11038;BME280;5572;49.540;11.932;2022-12-18T01:58:04;97337.97;;;-8.97;100.00
11038;BME280;5572;49.540;11.932;2022-12-18T02:00:31;97352.00;;;-8.63;100.00
11038;BME280;5572;49.540;11.932;2022-12-18T02:02:58;97321.00;;;-8.50;100.00
11038;BME280;5572;49.540;11.932;2022-12-18T02:05:33;97318.88;;;-8.46;100.00
11038;BME280;5572;49.540;11.932;2022-12-18T02:08:09;97323.16;;;-8.45;100.00
11038;BME280;5572;49.540;11.932;2022-12-18T02:10:45;97315.84;;;-8.59;100.00
11038;BME280;5572;49.540;11.932;2022-12-18T02:13:14;97314.66;;;-8.65;100.00
11038;BME280;5572;49.540;11.932;2022-12-18T02:15:51;97330.88;;;-8.36;100.00
11038;BME280;5572;49.540;11.932;2022-12-18T02:18:24;97317.94;;;-8.38;100.00
11038;BME280;5572;49.540;11.932;2022-12-18T02:20:55;97326.09;;;-8.41;100.00
11038;BME280;5572;49.540;11.932;2022-12-18T02:23:37;97306.13;;;-8.42;100.00
11038;BME280;5572;49.540;11.932;2022-12-18T02:26:17;97331.38;;;-8.33;100.00
11038;BME280;5572;49.540;11.932;2022-12-18T02:28:50;97320.47;;;-8.53;100.00
11038;BME280;5572;49.540;11.932;2022-12-18T02:31:21;97331.03;;;-8.63;100.00
11038;BME280;5572;49.540;11.932;2022-12-18T02:33:51;97333.88;;;-8.56;100.00
11038;BME280;5572;49.540;11.932;2022-12-18T02:36:21;97318.28;;;-8.33;100.00
11038;BME280;5572;49.540;11.932;2022-12-18T02:38:50;97314.34;;;-8.37;100.00
11038;BME280;5572;49.540;11.932;2022-12-18T02:41:20;97325.03;;;-8.55;100.00
11038;BME280;5572;49.540;11.932;2022-12-18T02:43:47;97317.31;;;-8.32;100.00
11038;BME280;5572;49.540;11.932;2022-12-18T02:46:26;97313.25;;;-8.51;100.00
11038;BME280;5572;49.540;11.932;2022-12-18T02:48:57;97303.69;;;-8.35;100.00
11038;BME280;5572;49.540;11.932;2022-12-18T02:51:30;97318.84;;;-8.54;100.00
11038;BME280;5572;49.540;11.932;2022-12-18T02:54:06;97307.16;;;-8.60;100.00
11038;BME280;5572;49.540;11.932;2022-12-18T02:56:38;97306.31;;;-8.35;100.00
11038;BME280;5572;49.540;11.932;2022-12-18T02:59:10;97294.09;;;-8.27;100.00
11038;BME280;5572;49.540;11.932;2022-12-18T03:01:44;97299.06;;;-8.16;100.00
11038;BME280;5572;49.540;11.932;2022-12-18T03:04:18;97290.34;;;-8.49;100.00
11038;BME280;5572;49.540;11.932;2022-12-18T03:06:49;97311.78;;;-8.54;100.00
11038;BME280;5572;49.540;11.932;2022-12-18T03:09:21;97321.94;;;-8.26;100.00
11038;BME280;5572;49.540;11.932;2022-12-18T03:11:55;97304.59;;;-8.27;100.00
11038;BME280;5572;49.540;11.932;2022-12-18T03:14:41;97311.88;;;-8.38;100.00
11038;BME280;5572;49.540;11.932;2022-12-18T03:17:16;97311.81;;;-8.21;100.00
11038;BME280;5572;49.540;11.932;2022-12-18T03:19:46;97313.47;;;-8.12;100.00
11038;BME280;5572;49.540;11.932;2022-12-18T03:22:14;97284.09;;;-8.31;100.00
11038;BME280;5572;49.540;11.932;2022-12-18T03:24:41;97299.22;;;-8.17;100.00
11038;BME280;5572;49.540;11.932;2022-12-18T03:27:12;97308.72;;;-8.08;100.00
11038;BME280;5572;49.540;11.932;2022-12-18T03:29:42;97290.22;;;-8.07;100.00
11038;BME280;5572;49.540;11.932;2022-12-18T03:32:15;97293.75;;;-7.90;100.00
11038;BME280;5572;49.540;11.932;2022-12-18T03:34:44;97306.22;;;-7.84;100.00
11038;BME280;5572;49.540;11.932;2022-12-18T03:37:13;97291.91;;;-7.98;100.00
11038;BME280;5572;49.540;11.932;2022-12-18T03:39:40;97299.75;;;-8.06;100.00
11038;BME280;5572;49.540;11.932;2022-12-18T03:42:13;97309.38;;;-8.06;100.00
11038;BME280;5572;49.540;11.932;2022-12-18T03:44:45;97317.06;;;-8.21;100.00
11038;BME280;5572;49.540;11.932;2022-12-18T03:47:17;97327.47;;;-7.95;100.00
11038;BME280;5572;49.540;11.932;2022-12-18T03:49:52;97318.88;;;-7.72;100.00
11038;BME280;5572;49.540;11.932;2022-12-18T03:52:26;97311.28;;;-7.83;100.00
11038;BME280;5572;49.540;11.932;2022-12-18T03:54:56;97310.53;;;-7.67;100.00
11038;BME280;5572;49.540;11.932;2022-12-18T03:57:28;97304.53;;;-7.93;100.00
11038;BME280;5572;49.540;11.932;2022-12-18T03:59:57;97321.94;;;-7.84;100.00
11038;BME280;5572;49.540;11.932;2022-12-18T04:02:26;97294.16;;;-8.03;100.00
11038;BME280;5572;49.540;11.932;2022-12-18T04:04:56;97322.63;;;-7.82;100.00
11038;BME280;5572;49.540;11.932;2022-12-18T04:07:24;97324.91;;;-8.21;100.00
11038;BME280;5572;49.540;11.932;2022-12-18T04:09:53;97331.81;;;-8.12;100.00
11038;BME280;5572;49.540;11.932;2022-12-18T04:12:24;97349.88;;;-8.01;100.00
11038;BME280;5572;49.540;11.932;2022-12-18T04:14:52;97339.19;;;-8.15;100.00
11038;BME280;5572;49.540;11.932;2022-12-18T04:17:18;97316.06;;;-8.12;100.00
11038;BME280;5572;49.540;11.932;2022-12-18T04:19:45;97333.81;;;-8.06;100.00
11038;BME280;5572;49.540;11.932;2022-12-18T04:22:12;97326.91;;;-8.15;100.00
11038;BME280;5572;49.540;11.932;2022-12-18T04:24:38;97337.56;;;-8.16;100.00
11038;BME280;5572;49.540;11.932;2022-12-18T04:27:06;97356.38;;;-8.21;100.00
11038;BME280;5572;49.540;11.932;2022-12-18T04:29:32;97361.78;;;-8.14;100.00
11038;BME280;5572;49.540;11.932;2022-12-18T04:32:00;97355.47;;;-8.04;100.00
11038;BME280;5572;49.540;11.932;2022-12-18T04:34:27;97349.50;;;-8.14;100.00
11038;BME280;5572;49.540;11.932;2022-12-18T04:36:54;97353.44;;;-8.10;100.00
11038;BME280;5572;49.540;11.932;2022-12-18T04:39:20;97364.59;;;-8.08;100.00
11038;BME280;5572;49.540;11.932;2022-12-18T04:41:47;97369.84;;;-8.08;100.00
11038;BME280;5572;49.540;11.932;2022-12-18T04:44:14;97374.25;;;-8.08;100.00
11038;BME280;5572;49.540;11.932;2022-12-18T04:46:41;97377.75;;;-8.00;100.00
11038;BME280;5572;49.540;11.932;2022-12-18T04:49:09;97373.91;;;-7.88;100.00
11038;BME280;5572;49.540;11.932;2022-12-18T04:51:36;97367.94;;;-7.98;100.00
11038;BME280;5572;49.540;11.932;2022-12-18T04:54:03;97366.59;;;-8.02;100.00
11038;BME280;5572;49.540;11.932;2022-12-18T04:56:30;97382.44;;;-7.86;100.00
11038;BME280;5572;49.540;11.932;2022-12-18T04:58:57;97380.53;;;-8.01;100.00
11038;BME280;5572;49.540;11.932;2022-12-18T05:01:24;97395.84;;;-7.89;100.00
11038;BME280;5572;49.540;11.932;2022-12-18T05:03:51;97377.66;;;-7.90;100.00
11038;BME280;5572;49.540;11.932;2022-12-18T05:06:19;97387.44;;;-8.00;100.00
11038;BME280;5572;49.540;11.932;2022-12-18T05:08:45;97376.94;;;-8.00;100.00
11038;BME280;5572;49.540;11.932;2022-12-18T05:11:14;97381.69;;;-8.04;100.00
11038;BME280;5572;49.540;11.932;2022-12-18T05:13:41;97387.91;;;-8.05;100.00
11038;BME280;5572;49.540;11.932;2022-12-18T05:16:08;97392.94;;;-7.86;100.00
11038;BME280;5572;49.540;11.932;2022-12-18T05:18:35;97393.13;;;-7.79;100.00
11038;BME280;5572;49.540;11.932;2022-12-18T05:21:02;97399.25;;;-7.96;100.00
11038;BME280;5572;49.540;11.932;2022-12-18T05:23:30;97414.88;;;-7.87;100.00
11038;BME280;5572;49.540;11.932;2022-12-18T05:26:02;97422.78;;;-7.79;100.00
11038;BME280;5572;49.540;11.932;2022-12-18T05:28:30;97422.78;;;-7.79;100.00
11038;BME280;5572;49.540;11.932;2022-12-18T05:30:59;97431.03;;;-7.74;100.00
11038;BME280;5572;49.540;11.932;2022-12-18T05:33:28;97433.94;;;-7.77;100.00
11038;BME280;5572;49.540;11.932;2022-12-18T05:35:57;97444.56;;;-7.78;100.00
11038;BME280;5572;49.540;11.932;2022-12-18T05:38:25;97444.47;;;-7.69;100.00
11038;BME280;5572;49.540;11.932;2022-12-18T05:40:53;97470.69;;;-7.44;100.00
11038;BME280;5572;49.540;11.932;2022-12-18T05:43:21;97469.91;;;-7.69;100.00
11038;BME280;5572;49.540;11.932;2022-12-18T05:45:48;97494.88;;;-7.58;100.00
11038;BME280;5572;49.540;11.932;2022-12-18T05:48:15;97501.97;;;-7.50;100.00
11038;BME280;5572;49.540;11.932;2022-12-18T05:50:43;97507.16;;;-7.66;100.00
11038;BME280;5572;49.540;11.932;2022-12-18T05:53:12;97514.84;;;-7.64;100.00
11038;BME280;5572;49.540;11.932;2022-12-18T05:55:41;97515.53;;;-7.63;100.00
11038;BME280;5572;49.540;11.932;2022-12-18T05:58:10;97522.00;;;-7.49;100.00
11038;BME280;5572;49.540;11.932;2022-12-18T06:00:39;97519.03;;;-7.54;100.00
11038;BME280;5572;49.540;11.932;2022-12-18T06:03:06;97523.84;;;-7.67;100.00
11038;BME280;5572;49.540;11.932;2022-12-18T06:05:34;97535.31;;;-7.68;100.00
11038;BME280;5572;49.540;11.932;2022-12-18T06:08:01;97543.19;;;-7.68;100.00
11038;BME280;5572;49.540;11.932;2022-12-18T06:10:28;97533.34;;;-7.74;100.00
11038;BME280;5572;49.540;11.932;2022-12-18T06:12:55;97537.06;;;-7.76;100.00
11038;BME280;5572;49.540;11.932;2022-12-18T06:15:23;97540.88;;;-7.71;100.00
11038;BME280;5572;49.540;11.932;2022-12-18T06:17:49;97547.25;;;-7.73;100.00
11038;BME280;5572;49.540;11.932;2022-12-18T06:20:16;97565.53;;;-7.64;100.00
11038;BME280;5572;49.540;11.932;2022-12-18T06:22:43;97572.63;;;-7.57;100.00
11038;BME280;5572;49.540;11.932;2022-12-18T06:25:10;97569.59;;;-7.69;100.00
11038;BME280;5572;49.540;11.932;2022-12-18T06:27:36;97579.84;;;-7.59;100.00
11038;BME280;5572;49.540;11.932;2022-12-18T06:30:04;97584.09;;;-7.58;100.00
11038;BME280;5572;49.540;11.932;2022-12-18T06:32:32;97598.50;;;-7.62;100.00
11038;BME280;5572;49.540;11.932;2022-12-18T06:34:59;97606.22;;;-7.60;100.00
11038;BME280;5572;49.540;11.932;2022-12-18T06:37:25;97583.75;;;-7.63;100.00
11038;BME280;5572;49.540;11.932;2022-12-18T06:39:52;97599.47;;;-7.63;100.00
11038;BME280;5572;49.540;11.932;2022-12-18T06:42:19;97604.44;;;-7.77;100.00
11038;BME280;5572;49.540;11.932;2022-12-18T06:44:45;97614.78;;;-7.75;100.00
11038;BME280;5572;49.540;11.932;2022-12-18T06:47:12;97627.78;;;-7.74;100.00
11038;BME280;5572;49.540;11.932;2022-12-18T06:49:40;97634.28;;;-7.61;100.00
11038;BME280;5572;49.540;11.932;2022-12-18T06:52:06;97633.06;;;-7.66;100.00
11038;BME280;5572;49.540;11.932;2022-12-18T06:54:33;97636.66;;;-7.84;100.00
11038;BME280;5572;49.540;11.932;2022-12-18T06:57:00;97655.25;;;-7.78;100.00
11038;BME280;5572;49.540;11.932;2022-12-18T06:59:27;97664.34;;;-7.72;100.00
11038;BME280;5572;49.540;11.932;2022-12-18T07:01:53;97674.06;;;-7.48;100.00
11038;BME280;5572;49.540;11.932;2022-12-18T07:04:20;97672.56;;;-7.67;100.00
11038;BME280;5572;49.540;11.932;2022-12-18T07:06:48;97668.69;;;-7.63;100.00
11038;BME280;5572;49.540;11.932;2022-12-18T07:09:15;97663.59;;;-7.65;100.00
11038;BME280;5572;49.540;11.932;2022-12-18T07:11:41;97673.25;;;-7.65;100.00
11038;BME280;5572;49.540;11.932;2022-12-18T07:14:08;97670.50;;;-7.64;100.00
11038;BME280;5572;49.540;11.932;2022-12-18T07:16:34;97663.81;;;-7.59;100.00
11038;BME280;5572;49.540;11.932;2022-12-18T07:19:01;97667.19;;;-7.66;100.00
11038;BME280;5572;49.540;11.932;2022-12-18T07:21:27;97673.13;;;-7.64;100.00
11038;BME280;5572;49.540;11.932;2022-12-18T07:23:56;97666.00;;;-7.71;100.00
11038;BME280;5572;49.540;11.932;2022-12-18T07:26:22;97680.13;;;-7.64;100.00
11038;BME280;5572;49.540;11.932;2022-12-18T07:28:49;97671.81;;;-7.77;100.00
11038;BME280;5572;49.540;11.932;2022-12-18T07:31:18;97679.63;;;-7.68;100.00
11038;BME280;5572;49.540;11.932;2022-12-18T07:33:45;97679.22;;;-7.73;100.00
11038;BME280;5572;49.540;11.932;2022-12-18T07:36:13;97677.63;;;-7.74;100.00
11038;BME280;5572;49.540;11.932;2022-12-18T07:38:39;97693.63;;;-7.77;100.00
11038;BME280;5572;49.540;11.932;2022-12-18T07:41:10;97698.00;;;-7.68;100.00
11038;BME280;5572;49.540;11.932;2022-12-18T07:43:37;97711.69;;;-7.57;100.00
11038;BME280;5572;49.540;11.932;2022-12-18T07:46:04;97716.72;;;-7.63;100.00
11038;BME280;5572;49.540;11.932;2022-12-18T07:48:31;97717.78;;;-7.73;100.00
11038;BME280;5572;49.540;11.932;2022-12-18T07:50:58;97749.59;;;-7.42;100.00
11038;BME280;5572;49.540;11.932;2022-12-18T07:53:25;97734.94;;;-7.62;100.00
11038;BME280;5572;49.540;11.932;2022-12-18T07:55:55;97753.91;;;-7.50;100.00
11038;BME280;5572;49.540;11.932;2022-12-18T07:58:23;97771.47;;;-7.51;100.00
11038;BME280;5572;49.540;11.932;2022-12-18T08:00:50;97765.22;;;-7.67;100.00
11038;BME280;5572;49.540;11.932;2022-12-18T08:03:17;97778.66;;;-7.18;100.00
11038;BME280;5572;49.540;11.932;2022-12-18T08:05:44;97775.53;;;-7.39;100.00
11038;BME280;5572;49.540;11.932;2022-12-18T08:08:10;97766.81;;;-7.57;100.00
11038;BME280;5572;49.540;11.932;2022-12-18T08:10:38;97793.28;;;-7.50;100.00
11038;BME280;5572;49.540;11.932;2022-12-18T08:13:04;97802.63;;;-7.21;100.00
11038;BME280;5572;49.540;11.932;2022-12-18T08:15:32;97805.31;;;-7.13;100.00
11038;BME280;5572;49.540;11.932;2022-12-18T08:17:59;97791.50;;;-7.32;100.00
11038;BME280;5572;49.540;11.932;2022-12-18T08:20:26;97787.28;;;-7.43;100.00
11038;BME280;5572;49.540;11.932;2022-12-18T08:22:52;97817.75;;;-7.32;100.00
11038;BME280;5572;49.540;11.932;2022-12-18T08:25:19;97816.63;;;-7.12;100.00
11038;BME280;5572;49.540;11.932;2022-12-18T08:27:45;97799.06;;;-7.29;100.00
11038;BME280;5572;49.540;11.932;2022-12-18T08:30:13;97795.00;;;-7.41;100.00
11038;BME280;5572;49.540;11.932;2022-12-18T08:32:41;97809.13;;;-7.25;100.00
11038;BME280;5572;49.540;11.932;2022-12-18T08:35:08;97824.72;;;-7.23;100.00
11038;BME280;5572;49.540;11.932;2022-12-18T08:37:37;97818.34;;;-7.38;100.00
11038;BME280;5572;49.540;11.932;2022-12-18T08:40:04;97827.16;;;-7.30;100.00
11038;BME280;5572;49.540;11.932;2022-12-18T08:42:34;97817.41;;;-7.20;100.00
11038;BME280;5572;49.540;11.932;2022-12-18T08:45:18;97830.66;;;-7.39;100.00
11038;BME280;5572;49.540;11.932;2022-12-18T08:47:46;97839.50;;;-7.22;100.00
11038;BME280;5572;49.540;11.932;2022-12-18T08:50:13;97867.91;;;-6.91;100.00
11038;BME280;5572;49.540;11.932;2022-12-18T08:52:39;97827.75;;;-7.18;100.00
11038;BME280;5572;49.540;11.932;2022-12-18T08:55:08;97833.31;;;-6.86;100.00
11038;BME280;5572;49.540;11.932;2022-12-18T08:57:34;97839.91;;;-7.00;100.00
11038;BME280;5572;49.540;11.932;2022-12-18T09:00:01;97846.63;;;-6.63;100.00
11038;BME280;5572;49.540;11.932;2022-12-18T09:02:28;97845.66;;;-6.62;100.00
11038;BME280;5572;49.540;11.932;2022-12-18T09:04:56;97855.88;;;-6.76;100.00
11038;BME280;5572;49.540;11.932;2022-12-18T09:07:22;97836.66;;;-6.94;100.00
11038;BME280;5572;49.540;11.932;2022-12-18T09:09:49;97848.72;;;-6.49;100.00
11038;BME280;5572;49.540;11.932;2022-12-18T09:12:15;97828.94;;;-6.53;100.00
11038;BME280;5572;49.540;11.932;2022-12-18T09:14:42;97823.94;;;-6.64;100.00
11038;BME280;5572;49.540;11.932;2022-12-18T09:17:09;97832.53;;;-6.36;100.00
11038;BME280;5572;49.540;11.932;2022-12-18T09:19:35;97836.84;;;-6.02;100.00
11038;BME280;5572;49.540;11.932;2022-12-18T09:22:03;97810.69;;;-6.37;100.00
11038;BME280;5572;49.540;11.932;2022-12-18T09:24:30;97814.03;;;-6.27;100.00
11038;BME280;5572;49.540;11.932;2022-12-18T09:26:57;97818.09;;;-6.32;100.00
11038;BME280;5572;49.540;11.932;2022-12-18T09:29:24;97813.69;;;-5.98;100.00
11038;BME280;5572;49.540;11.932;2022-12-18T09:31:50;97815.28;;;-6.05;100.00
11038;BME280;5572;49.540;11.932;2022-12-18T09:34:17;97843.44;;;-5.15;100.00
11038;BME280;5572;49.540;11.932;2022-12-18T09:36:46;97826.22;;;-5.43;100.00
11038;BME280;5572;49.540;11.932;2022-12-18T09:39:14;97799.84;;;-5.59;100.00
11038;BME280;5572;49.540;11.932;2022-12-18T09:41:43;97826.28;;;-5.27;100.00
11038;BME280;5572;49.540;11.932;2022-12-18T09:44:18;97756.97;;;-5.93;100.00
11038;BME280;5572;49.540;11.932;2022-12-18T09:46:50;97730.56;;;-6.25;100.00
11038;BME280;5572;49.540;11.932;2022-12-18T09:49:20;97756.00;;;-5.92;100.00
11038;BME280;5572;49.540;11.932;2022-12-18T09:51:51;97750.44;;;-5.81;100.00
11038;BME280;5572;49.540;11.932;2022-12-18T09:54:23;97783.59;;;-5.39;100.00
11038;BME280;5572;49.540;11.932;2022-12-18T09:56:52;97721.75;;;-6.00;100.00
11038;BME280;5572;49.540;11.932;2022-12-18T09:59:23;97695.53;;;-6.17;100.00
11038;BME280;5572;49.540;11.932;2022-12-18T10:01:50;97724.78;;;-5.71;100.00
11038;BME280;5572;49.540;11.932;2022-12-18T10:04:17;97671.09;;;-6.10;100.00
11038;BME280;5572;49.540;11.932;2022-12-18T10:06:48;97639.00;;;-6.21;100.00
11038;BME280;5572;49.540;11.932;2022-12-18T10:09:24;97613.78;;;-6.40;100.00
11038;BME280;5572;49.540;11.932;2022-12-18T10:12:01;97654.03;;;-5.98;100.00
11038;BME280;5572;49.540;11.932;2022-12-18T10:14:39;97695.16;;;-5.73;100.00
11038;BME280;5572;49.540;11.932;2022-12-18T10:17:19;97618.78;;;-6.21;100.00
11038;BME280;5572;49.540;11.932;2022-12-18T10:19:52;97656.69;;;-5.82;100.00
11038;BME280;5572;49.540;11.932;2022-12-18T10:22:30;97661.59;;;-5.71;100.00
11038;BME280;5572;49.540;11.932;2022-12-18T10:25:12;97665.25;;;-5.56;100.00
11038;BME280;5572;49.540;11.932;2022-12-18T10:27:41;97623.63;;;-5.85;100.00
11038;BME280;5572;49.540;11.932;2022-12-18T10:30:13;97605.53;;;-5.88;100.00
11038;BME280;5572;49.540;11.932;2022-12-18T10:32:40;97609.97;;;-5.56;100.00
11038;BME280;5572;49.540;11.932;2022-12-18T10:35:14;97620.47;;;-5.32;100.00
11038;BME280;5572;49.540;11.932;2022-12-18T10:38:01;97550.25;;;-5.72;100.00
11038;BME280;5572;49.540;11.932;2022-12-18T10:40:30;97625.53;;;-4.83;100.00
11038;BME280;5572;49.540;11.932;2022-12-18T10:43:04;97563.66;;;-5.11;100.00
11038;BME280;5572;49.540;11.932;2022-12-18T10:45:31;97557.25;;;-5.16;100.00
11038;BME280;5572;49.540;11.932;2022-12-18T10:47:58;97490.91;;;-5.90;100.00
11038;BME280;5572;49.540;11.932;2022-12-18T10:50:29;97528.78;;;-5.21;100.00
11038;BME280;5572;49.540;11.932;2022-12-18T10:52:58;97530.84;;;-5.01;100.00
11038;BME280;5572;49.540;11.932;2022-12-18T10:55:29;97501.31;;;-5.26;100.00
11038;BME280;5572;49.540;11.932;2022-12-18T10:58:13;97441.09;;;-5.99;100.00
11038;BME280;5572;49.540;11.932;2022-12-18T11:00:42;97489.22;;;-5.67;100.00
11038;BME280;5572;49.540;11.932;2022-12-18T11:03:30;97453.66;;;-5.71;100.00
11038;BME280;5572;49.540;11.932;2022-12-18T11:06:06;97516.38;;;-5.13;100.00
11038;BME280;5572;49.540;11.932;2022-12-18T11:08:33;97442.03;;;-5.77;100.00
11038;BME280;5572;49.540;11.932;2022-12-18T11:11:00;97467.16;;;-5.58;100.00
11038;BME280;5572;49.540;11.932;2022-12-18T11:13:29;97460.22;;;-5.51;100.00
11038;BME280;5572;49.540;11.932;2022-12-18T11:15:57;97470.22;;;-5.31;100.00
11038;BME280;5572;49.540;11.932;2022-12-18T11:18:27;97500.03;;;-4.92;100.00
11038;BME280;5572;49.540;11.932;2022-12-18T11:20:55;97474.16;;;-4.89;100.00
11038;BME280;5572;49.540;11.932;2022-12-18T11:23:24;97483.75;;;-4.35;100.00
11038;BME280;5572;49.540;11.932;2022-12-18T11:25:52;97461.81;;;-4.35;100.00
11038;BME280;5572;49.540;11.932;2022-12-18T11:28:34;97452.75;;;-4.19;100.00
11038;BME280;5572;49.540;11.932;2022-12-18T11:31:21;97422.75;;;-4.40;100.00
11038;BME280;5572;49.540;11.932;2022-12-18T11:33:57;97470.91;;;-3.42;100.00
11038;BME280;5572;49.540;11.932;2022-12-18T11:36:28;97387.97;;;-3.84;100.00
11038;BME280;5572;49.540;11.932;2022-12-18T11:38:57;97374.16;;;-4.09;100.00
11038;BME280;5572;49.540;11.932;2022-12-18T11:41:27;97368.84;;;-3.86;100.00
11038;BME280;5572;49.540;11.932;2022-12-18T11:44:14;97352.06;;;-4.08;100.00
11038;BME280;5572;49.540;11.932;2022-12-18T11:46:47;97359.38;;;-3.95;100.00
11038;BME280;5572;49.540;11.932;2022-12-18T11:49:20;97322.78;;;-3.69;100.00
11038;BME280;5572;49.540;11.932;2022-12-18T11:51:53;97342.53;;;-3.94;100.00
11038;BME280;5572;49.540;11.932;2022-12-18T11:54:22;97287.00;;;-4.15;100.00
11038;BME280;5572;49.540;11.932;2022-12-18T11:56:51;97302.84;;;-4.29;100.00
11038;BME280;5572;49.540;11.932;2022-12-18T11:59:31;97309.59;;;-3.84;100.00
11038;BME280;5572;49.540;11.932;2022-12-18T12:02:11;97250.34;;;-4.25;100.00
11038;BME280;5572;49.540;11.932;2022-12-18T12:05:01;97272.75;;;-3.42;100.00
11038;BME280;5572;49.540;11.932;2022-12-18T12:07:38;97232.19;;;-3.14;100.00
11038;BME280;5572;49.540;11.932;2022-12-18T12:10:18;97209.22;;;-4.19;100.00
11038;BME280;5572;49.540;11.932;2022-12-18T12:13:00;97215.31;;;-3.69;100.00
11038;BME280;5572;49.540;11.932;2022-12-18T12:15:41;97180.13;;;-3.76;100.00
11038;BME280;5572;49.540;11.932;2022-12-18T12:18:21;97169.06;;;-3.65;100.00
11038;BME280;5572;49.540;11.932;2022-12-18T12:20:58;97149.28;;;-3.54;100.00
11038;BME280;5572;49.540;11.932;2022-12-18T12:23:36;97127.97;;;-3.53;100.00
11038;BME280;5572;49.540;11.932;2022-12-18T12:26:06;97119.94;;;-3.80;100.00
11038;BME280;5572;49.540;11.932;2022-12-18T12:28:59;97100.06;;;-3.97;100.00
11038;BME280;5572;49.540;11.932;2022-12-18T12:31:43;97092.31;;;-4.34;100.00
11038;BME280;5572;49.540;11.932;2022-12-18T12:34:17;97077.25;;;-4.40;100.00
11038;BME280;5572;49.540;11.932;2022-12-18T12:36:57;97063.81;;;-4.24;100.00
11038;BME280;5572;49.540;11.932;2022-12-18T12:39:32;97119.47;;;-3.69;100.00
11038;BME280;5572;49.540;11.932;2022-12-18T12:42:01;97074.50;;;-3.07;100.00
11038;BME280;5572;49.540;11.932;2022-12-18T12:44:49;97067.91;;;-3.86;100.00
11038;BME280;5572;49.540;11.932;2022-12-18T12:47:22;97052.72;;;-3.57;100.00
11038;BME280;5572;49.540;11.932;2022-12-18T12:49:53;97042.63;;;-3.26;100.00
11038;BME280;5572;49.540;11.932;2022-12-18T12:52:27;97025.63;;;-3.17;100.00
11038;BME280;5572;49.540;11.932;2022-12-18T12:54:57;96997.97;;;-3.21;100.00
11038;BME280;5572;49.540;11.932;2022-12-18T12:57:30;97015.16;;;-3.32;100.00
11038;BME280;5572;49.540;11.932;2022-12-18T13:00:03;97024.66;;;-4.06;100.00
11038;BME280;5572;49.540;11.932;2022-12-18T13:02:37;97049.44;;;-3.86;100.00
11038;BME280;5572;49.540;11.932;2022-12-18T13:05:16;97037.72;;;-4.19;100.00